sensor_id;sensor_type;location;lat;lon;timestamp;pressure;altitude;pressure_sealevel;temperature;humidity
79174;BME280;68599;49.142;9.124;2024-03-06T00:01:04;99830.48;;;6.58;73.64
79174;BME280;68599;49.142;9.124;2024-03-06T00:03:31;99829.27;;;6.61;73.33
79174;BME280;68599;49.142;9.124;2024-03-06T00:05:57;99828.37;;;6.66;72.98
79174;BME280;68599;49.142;9.124;2024-03-06T00:08:23;99829.27;;;6.66;73.29
79174;BME280;68599;49.142;9.124;2024-03-06T00:10:50;99829.43;;;6.69;73.28
79174;BME280;68599;49.142;9.124;2024-03-06T00:13:16;99832.85;;;6.73;73.21
79174;BME280;68599;49.142;9.124;2024-03-06T00:15:43;99834.45;;;6.73;73.47
79174;BME280;68599;49.142;9.124;2024-03-06T00:18:10;99831.59;;;6.69;73.89
79174;BME280;68599;49.142;9.124;2024-03-06T00:20:37;99831.05;;;6.68;73.59
79174;BME280;68599;49.142;9.124;2024-03-06T00:23:03;99832.30;;;6.69;73.54
79174;BME280;68599;49.142;9.124;2024-03-06T00:25:30;99832.84;;;6.69;73.35
79174;BME280;68599;49.142;9.124;2024-03-06T00:27:57;99834.98;;;6.70;73.47
79174;BME280;68599;49.142;9.124;2024-03-06T00:30:23;99837.68;;;6.70;73.47
79174;BME280;68599;49.142;9.124;2024-03-06T00:32:50;99841.44;;;6.70;73.34
79174;BME280;68599;49.142;9.124;2024-03-06T00:35:16;99842.52;;;6.69;72.96
79174;BME280;68599;49.142;9.124;2024-03-06T00:37:43;99841.80;;;6.66;73.22
79174;BME280;68599;49.142;9.124;2024-03-06T00:40:10;99841.79;;;6.63;73.19
79174;BME280;68599;49.142;9.124;2024-03-06T00:42:38;99841.60;;;6.62;73.30
79174;BME280;68599;49.142;9.124;2024-03-06T00:45:07;99842.67;;;6.63;73.30
79174;BME280;68599;49.142;9.124;2024-03-06T00:47:34;99839.45;;;6.61;73.62
79174;BME280;68599;49.142;9.124;2024-03-06T00:50:01;99841.23;;;6.59;73.92
79174;BME280;68599;49.142;9.124;2024-03-06T00:52:27;99841.06;;;6.59;73.63
79174;BME280;68599;49.142;9.124;2024-03-06T00:54:54;99844.64;;;6.58;73.12
79174;BME280;68599;49.142;9.124;2024-03-06T00:57:21;99841.60;;;6.57;72.79
79174;BME280;68599;49.142;9.124;2024-03-06T00:59:47;99851.98;;;6.55;72.87
79174;BME280;68599;49.142;9.124;2024-03-06T01:02:13;99856.27;;;6.55;73.17
79174;BME280;68599;49.142;9.124;2024-03-06T01:04:40;99859.49;;;6.58;73.42
79174;BME280;68599;49.142;9.124;2024-03-06T01:07:07;99865.06;;;6.60;73.60
79174;BME280;68599;49.142;9.124;2024-03-06T01:09:33;99865.60;;;6.61;73.62
79174;BME280;68599;49.142;9.124;2024-03-06T01:12:00;99869.55;;;6.66;73.62
79174;BME280;68599;49.142;9.124;2024-03-06T01:14:26;99865.44;;;6.69;73.41
79174;BME280;68599;49.142;9.124;2024-03-06T01:16:53;99860.62;;;6.74;73.50
79174;BME280;68599;49.142;9.124;2024-03-06T01:19:19;99857.93;;;6.77;72.88
79174;BME280;68599;49.142;9.124;2024-03-06T01:21:46;99854.70;;;6.76;73.50
79174;BME280;68599;49.142;9.124;2024-03-06T01:24:12;99854.70;;;6.78;73.34
79174;BME280;68599;49.142;9.124;2024-03-06T01:26:39;99856.68;;;6.79;72.91
79174;BME280;68599;49.142;9.124;2024-03-06T01:29:06;99857.92;;;6.77;73.26
79174;BME280;68599;49.142;9.124;2024-03-06T01:31:33;99862.59;;;6.76;73.11
79174;BME280;68599;49.142;9.124;2024-03-06T01:33:59;99861.68;;;6.73;73.69
79174;BME280;68599;49.142;9.124;2024-03-06T01:36:26;99861.33;;;6.71;73.42
79174;BME280;68599;49.142;9.124;2024-03-06T01:38:52;99858.99;;;6.72;73.44
79174;BME280;68599;49.142;9.124;2024-03-06T01:41:19;99863.30;;;6.72;73.32
79174;BME280;68599;49.142;9.124;2024-03-06T01:43:46;99857.74;;;6.71;73.10
79174;BME280;68599;49.142;9.124;2024-03-06T01:46:13;99861.86;;;6.69;73.28
79174;BME280;68599;49.142;9.124;2024-03-06T01:48:40;99861.67;;;6.67;72.99
79174;BME280;68599;49.142;9.124;2024-03-06T01:51:07;99857.72;;;6.62;72.76
79174;BME280;68599;49.142;9.124;2024-03-06T01:53:34;99855.56;;;6.56;73.20
79174;BME280;68599;49.142;9.124;2024-03-06T01:56:02;99861.11;;;6.54;73.12
79174;BME280;68599;49.142;9.124;2024-03-06T01:58:31;99866.64;;;6.50;73.31
79174;BME280;68599;49.142;9.124;2024-03-06T02:01:00;99871.29;;;6.45;73.92
79174;BME280;68599;49.142;9.124;2024-03-06T02:03:27;99866.98;;;6.40;73.68
79174;BME280;68599;49.142;9.124;2024-03-06T02:05:56;99867.48;;;6.32;74.59
79174;BME280;68599;49.142;9.124;2024-03-06T02:08:25;99864.76;;;6.24;75.02
79174;BME280;68599;49.142;9.124;2024-03-06T02:10:51;99866.20;;;6.21;74.31
79174;BME280;68599;49.142;9.124;2024-03-06T02:13:18;99870.45;;;6.16;74.49
79174;BME280;68599;49.142;9.124;2024-03-06T02:15:45;99870.78;;;6.09;74.91
79174;BME280;68599;49.142;9.124;2024-03-06T02:18:12;99871.48;;;6.04;75.27
79174;BME280;68599;49.142;9.124;2024-03-06T02:20:39;99869.34;;;6.04;74.77
79174;BME280;68599;49.142;9.124;2024-03-06T02:23:07;99868.25;;;6.03;74.02
79174;BME280;68599;49.142;9.124;2024-03-06T02:25:34;99867.52;;;6.01;74.11
79174;BME280;68599;49.142;9.124;2024-03-06T02:28:01;99870.17;;;5.95;75.11
79174;BME280;68599;49.142;9.124;2024-03-06T02:30:27;99875.83;;;5.86;75.84
79174;BME280;68599;49.142;9.124;2024-03-06T02:32:57;99880.08;;;5.80;75.32
79174;BME280;68599;49.142;9.124;2024-03-06T02:35:23;99879.70;;;5.77;74.59
79174;BME280;68599;49.142;9.124;2024-03-06T02:37:50;99883.27;;;5.76;74.29
79174;BME280;68599;49.142;9.124;2024-03-06T02:40:17;99881.31;;;5.75;73.86
79174;BME280;68599;49.142;9.124;2024-03-06T02:42:43;99877.36;;;5.72;73.78
79174;BME280;68599;49.142;9.124;2024-03-06T02:45:10;99875.34;;;5.66;74.25
79174;BME280;68599;49.142;9.124;2024-03-06T02:47:36;99877.48;;;5.64;74.58
79174;BME280;68599;49.142;9.124;2024-03-06T02:50:03;99872.83;;;5.65;75.15
79174;BME280;68599;49.142;9.124;2024-03-06T02:52:31;99867.47;;;5.66;75.23
79174;BME280;68599;49.142;9.124;2024-03-06T02:54:58;99867.32;;;5.68;74.56
79174;BME280;68599;49.142;9.124;2024-03-06T02:57:27;99864.83;;;5.71;74.21
79174;BME280;68599;49.142;9.124;2024-03-06T02:59:58;99865.87;;;5.66;74.55
79174;BME280;68599;49.142;9.124;2024-03-06T03:02:25;99870.71;;;5.69;74.58
79174;BME280;68599;49.142;9.124;2024-03-06T03:04:52;99869.47;;;5.71;73.97
79174;BME280;68599;49.142;9.124;2024-03-06T03:07:19;99864.61;;;5.66;74.20
79174;BME280;68599;49.142;9.124;2024-03-06T03:09:45;99867.13;;;5.67;74.38
79174;BME280;68599;49.142;9.124;2024-03-06T03:12:13;99865.85;;;5.63;74.79
79174;BME280;68599;49.142;9.124;2024-03-06T03:14:40;99867.28;;;5.64;75.24
79174;BME280;68599;49.142;9.124;2024-03-06T03:17:07;99867.67;;;5.67;74.98
79174;BME280;68599;49.142;9.124;2024-03-06T03:19:34;99867.69;;;5.71;74.68
79174;BME280;68599;49.142;9.124;2024-03-06T03:22:01;99864.14;;;5.75;74.70
79174;BME280;68599;49.142;9.124;2024-03-06T03:24:30;99867.92;;;5.81;74.75
79174;BME280;68599;49.142;9.124;2024-03-06T03:26:57;99866.73;;;5.87;74.72
79174;BME280;68599;49.142;9.124;2024-03-06T03:29:23;99869.99;;;5.92;74.59
79174;BME280;68599;49.142;9.124;2024-03-06T03:31:50;99879.29;;;5.93;75.12
79174;BME280;68599;49.142;9.124;2024-03-06T03:34:16;99882.69;;;5.94;75.07
79174;BME280;68599;49.142;9.124;2024-03-06T03:36:43;99888.05;;;5.92;74.18
79174;BME280;68599;49.142;9.124;2024-03-06T03:39:11;99890.34;;;5.89;74.75
79174;BME280;68599;49.142;9.124;2024-03-06T03:41:44;99895.02;;;5.91;75.14
79174;BME280;68599;49.142;9.124;2024-03-06T03:44:13;99895.73;;;5.91;75.20
79174;BME280;68599;49.142;9.124;2024-03-06T03:46:40;99890.92;;;5.94;74.63
79174;BME280;68599;49.142;9.124;2024-03-06T03:49:07;99892.16;;;5.94;75.23
79174;BME280;68599;49.142;9.124;2024-03-06T03:51:38;99890.59;;;5.97;75.18
79174;BME280;68599;49.142;9.124;2024-03-06T03:54:06;99891.88;;;6.04;74.77
79174;BME280;68599;49.142;9.124;2024-03-06T03:56:32;99888.65;;;6.03;74.97
79174;BME280;68599;49.142;9.124;2024-03-06T03:58:59;99889.91;;;6.03;74.95
79174;BME280;68599;49.142;9.124;2024-03-06T04:01:26;99885.98;;;6.06;75.22
79174;BME280;68599;49.142;9.124;2024-03-06T04:03:53;99888.13;;;6.06;75.42
79174;BME280;68599;49.142;9.124;2024-03-06T04:06:19;99889.39;;;6.09;75.20
79174;BME280;68599;49.142;9.124;2024-03-06T04:08:46;99888.49;;;6.08;75.14
79174;BME280;68599;49.142;9.124;2024-03-06T04:11:12;99894.75;;;6.07;75.69
79174;BME280;68599;49.142;9.124;2024-03-06T04:13:39;99891.01;;;6.11;75.63
79174;BME280;68599;49.142;9.124;2024-03-06T04:16:06;99891.77;;;6.18;75.27
79174;BME280;68599;49.142;9.124;2024-03-06T04:18:33;99895.34;;;6.19;75.22
79174;BME280;68599;49.142;9.124;2024-03-06T04:21:06;99893.72;;;6.18;76.10
79174;BME280;68599;49.142;9.124;2024-03-06T04:23:33;99901.08;;;6.23;75.21
79174;BME280;68599;49.142;9.124;2024-03-06T04:26:00;99901.83;;;6.27;74.93
79174;BME280;68599;49.142;9.124;2024-03-06T04:28:27;99908.27;;;6.30;74.82
79174;BME280;68599;49.142;9.124;2024-03-06T04:30:53;99907.92;;;6.33;74.70
79174;BME280;68599;49.142;9.124;2024-03-06T04:33:20;99910.60;;;6.31;75.39
79174;BME280;68599;49.142;9.124;2024-03-06T04:35:47;99913.09;;;6.28;75.19
79174;BME280;68599;49.142;9.124;2024-03-06T04:38:14;99918.82;;;6.27;75.34
79174;BME280;68599;49.142;9.124;2024-03-06T04:40:41;99922.76;;;6.29;75.26
79174;BME280;68599;49.142;9.124;2024-03-06T04:43:07;99929.41;;;6.32;75.56
79174;BME280;68599;49.142;9.124;2024-03-06T04:45:34;99934.23;;;6.35;75.15
79174;BME280;68599;49.142;9.124;2024-03-06T04:48:01;99933.17;;;6.37;74.89
79174;BME280;68599;49.142;9.124;2024-03-06T04:50:27;99933.02;;;6.38;74.87
79174;BME280;68599;49.142;9.124;2024-03-06T04:52:54;99933.71;;;6.37;74.92
79174;BME280;68599;49.142;9.124;2024-03-06T04:55:22;99935.52;;;6.38;74.83
79174;BME280;68599;49.142;9.124;2024-03-06T04:57:49;99940.52;;;6.37;74.87
79174;BME280;68599;49.142;9.124;2024-03-06T05:00:16;99943.02;;;6.35;74.93
79174;BME280;68599;49.142;9.124;2024-03-06T05:02:44;99945.88;;;6.36;74.74
79174;BME280;68599;49.142;9.124;2024-03-06T05:05:28;99946.05;;;6.35;74.88
79174;BME280;68599;49.142;9.124;2024-03-06T05:08:13;99949.98;;;6.33;75.07
79174;BME280;68599;49.142;9.124;2024-03-06T05:10:57;99955.17;;;6.35;74.88
79174;BME280;68599;49.142;9.124;2024-03-06T05:13:41;99953.94;;;6.36;74.78
79174;BME280;68599;49.142;9.124;2024-03-06T05:16:25;99955.36;;;6.36;74.67
79174;BME280;68599;49.142;9.124;2024-03-06T05:19:10;99954.83;;;6.36;75.17
79174;BME280;68599;49.142;9.124;2024-03-06T05:21:54;99958.75;;;6.33;75.12
79174;BME280;68599;49.142;9.124;2024-03-06T05:24:38;99957.66;;;6.29;75.33
79174;BME280;68599;49.142;9.124;2024-03-06T05:27:23;99965.70;;;6.27;75.13
79174;BME280;68599;49.142;9.124;2024-03-06T05:30:07;99967.50;;;6.27;75.09
79174;BME280;68599;49.142;9.124;2024-03-06T05:32:52;99974.83;;;6.26;75.14
79174;BME280;68599;49.142;9.124;2024-03-06T05:35:36;99974.47;;;6.26;75.38
79174;BME280;68599;49.142;9.124;2024-03-06T05:38:20;99974.29;;;6.27;76.14
79174;BME280;68599;49.142;9.124;2024-03-06T05:41:06;99979.51;;;6.32;75.58
79174;BME280;68599;49.142;9.124;2024-03-06T05:43:49;99983.41;;;6.26;75.48
79174;BME280;68599;49.142;9.124;2024-03-06T05:46:33;99987.33;;;6.21;75.83
79174;BME280;68599;49.142;9.124;2024-03-06T05:49:17;99989.48;;;6.24;75.74
79174;BME280;68599;49.142;9.124;2024-03-06T05:52:01;99993.09;;;6.29;75.28
79174;BME280;68599;49.142;9.124;2024-03-06T05:54:46;99993.66;;;6.33;75.20
79174;BME280;68599;49.142;9.124;2024-03-06T05:57:30;99992.59;;;6.35;75.58
79174;BME280;68599;49.142;9.124;2024-03-06T06:00:16;99996.73;;;6.40;75.58
79174;BME280;68599;49.142;9.124;2024-03-06T06:02:44;99997.30;;;6.47;75.47
79174;BME280;68599;49.142;9.124;2024-03-06T06:05:12;100005.01;;;6.48;75.91
79174;BME280;68599;49.142;9.124;2024-03-06T06:07:50;100008.63;;;6.56;75.42
79174;BME280;68599;49.142;9.124;2024-03-06T06:10:16;100009.52;;;6.58;75.53
79174;BME280;68599;49.142;9.124;2024-03-06T06:12:47;100008.98;;;6.57;75.75
79174;BME280;68599;49.142;9.124;2024-03-06T06:15:14;100015.07;;;6.56;76.10
79174;BME280;68599;49.142;9.124;2024-03-06T06:17:41;100022.61;;;6.60;75.93
79174;BME280;68599;49.142;9.124;2024-03-06T06:20:11;100026.17;;;6.56;76.55
79174;BME280;68599;49.142;9.124;2024-03-06T06:22:42;100026.37;;;6.59;76.39
79174;BME280;68599;49.142;9.124;2024-03-06T06:25:09;100029.98;;;6.65;76.07
79174;BME280;68599;49.142;9.124;2024-03-06T06:27:37;100030.74;;;6.74;75.73
79174;BME280;68599;49.142;9.124;2024-03-06T06:30:06;100030.20;;;6.74;75.86
79174;BME280;68599;49.142;9.124;2024-03-06T06:32:33;100035.05;;;6.78;75.86
79174;BME280;68599;49.142;9.124;2024-03-06T06:35:01;100036.68;;;6.80;75.70
79174;BME280;68599;49.142;9.124;2024-03-06T06:37:27;100039.73;;;6.81;75.68
79174;BME280;68599;49.142;9.124;2024-03-06T06:39:54;100042.98;;;6.89;75.49
79174;BME280;68599;49.142;9.124;2024-03-06T06:42:20;100044.79;;;6.91;75.31
79174;BME280;68599;49.142;9.124;2024-03-06T06:44:47;100044.08;;;6.96;75.17
79174;BME280;68599;49.142;9.124;2024-03-06T06:47:13;100046.42;;;7.00;75.32
79174;BME280;68599;49.142;9.124;2024-03-06T06:49:39;100046.42;;;6.98;75.41
79174;BME280;68599;49.142;9.124;2024-03-06T06:52:06;100050.90;;;6.99;75.13
79174;BME280;68599;49.142;9.124;2024-03-06T06:54:32;100057.02;;;7.00;75.39
79174;BME280;68599;49.142;9.124;2024-03-06T06:56:59;100057.55;;;7.01;75.69
79174;BME280;68599;49.142;9.124;2024-03-06T06:59:25;100058.65;;;7.10;75.38
79174;BME280;68599;49.142;9.124;2024-03-06T07:01:52;100061.90;;;7.19;75.09
79174;BME280;68599;49.142;9.124;2024-03-06T07:04:18;100067.27;;;7.14;75.33
79174;BME280;68599;49.142;9.124;2024-03-06T07:06:46;100068.72;;;7.19;75.19
79174;BME280;68599;49.142;9.124;2024-03-06T07:09:13;100065.68;;;7.26;74.58
79174;BME280;68599;49.142;9.124;2024-03-06T07:11:42;100069.61;;;7.17;75.03
79174;BME280;68599;49.142;9.124;2024-03-06T07:14:12;100069.45;;;7.19;74.82
79174;BME280;68599;49.142;9.124;2024-03-06T07:16:43;100076.23;;;7.16;75.27
79174;BME280;68599;49.142;9.124;2024-03-06T07:19:10;100074.98;;;7.21;75.17
79174;BME280;68599;49.142;9.124;2024-03-06T07:21:37;100072.50;;;7.24;75.03
79174;BME280;68599;49.142;9.124;2024-03-06T07:24:04;100080.56;;;7.23;75.87
79174;BME280;68599;49.142;9.124;2024-03-06T07:26:32;100078.59;;;7.23;75.62
79174;BME280;68599;49.142;9.124;2024-03-06T07:29:00;100081.85;;;7.33;74.89
79174;BME280;68599;49.142;9.124;2024-03-06T07:31:27;100083.27;;;7.30;75.01
79174;BME280;68599;49.142;9.124;2024-03-06T07:33:53;100087.41;;;7.32;74.79
79174;BME280;68599;49.142;9.124;2024-03-06T07:36:21;100085.08;;;7.36;74.90
79174;BME280;68599;49.142;9.124;2024-03-06T07:38:48;100085.98;;;7.37;75.03
79174;BME280;68599;49.142;9.124;2024-03-06T07:41:14;100087.96;;;7.44;74.92
79174;BME280;68599;49.142;9.124;2024-03-06T07:43:41;100090.68;;;7.49;75.31
79174;BME280;68599;49.142;9.124;2024-03-06T07:46:07;100091.04;;;7.53;74.98
79174;BME280;68599;49.142;9.124;2024-03-06T07:48:38;100095.90;;;7.56;75.25
79174;BME280;68599;49.142;9.124;2024-03-06T07:51:05;100097.89;;;7.68;74.75
79174;BME280;68599;49.142;9.124;2024-03-06T07:53:31;100098.98;;;7.75;74.49
79174;BME280;68599;49.142;9.124;2024-03-06T07:55:58;100103.99;;;7.71;74.62
79174;BME280;68599;49.142;9.124;2024-03-06T07:58:24;100106.33;;;7.74;74.72
79174;BME280;68599;49.142;9.124;2024-03-06T08:00:52;100104.55;;;7.72;74.67
79174;BME280;68599;49.142;9.124;2024-03-06T08:03:24;100107.05;;;7.74;74.55
79174;BME280;68599;49.142;9.124;2024-03-06T08:05:52;100108.84;;;7.73;74.59
79174;BME280;68599;49.142;9.124;2024-03-06T08:08:20;100105.96;;;7.77;74.26
79174;BME280;68599;49.142;9.124;2024-03-06T08:10:47;100109.55;;;7.71;74.59
79174;BME280;68599;49.142;9.124;2024-03-06T08:13:14;100111.88;;;7.66;74.78
79174;BME280;68599;49.142;9.124;2024-03-06T08:15:41;100114.73;;;7.61;75.17
79174;BME280;68599;49.142;9.124;2024-03-06T08:18:12;100119.58;;;7.63;75.51
79174;BME280;68599;49.142;9.124;2024-03-06T08:20:40;100121.92;;;7.72;75.07
79174;BME280;68599;49.142;9.124;2024-03-06T08:23:08;100121.77;;;7.84;74.92
79174;BME280;68599;49.142;9.124;2024-03-06T08:25:37;100116.59;;;7.96;74.63
79174;BME280;68599;49.142;9.124;2024-03-06T08:28:04;100118.94;;;8.07;74.36
79174;BME280;68599;49.142;9.124;2024-03-06T08:30:32;100115.16;;;8.12;74.43
79174;BME280;68599;49.142;9.124;2024-03-06T08:32:58;100116.23;;;8.21;73.97
79174;BME280;68599;49.142;9.124;2024-03-06T08:35:26;100121.27;;;8.16;73.94
79174;BME280;68599;49.142;9.124;2024-03-06T08:37:52;100122.88;;;8.23;73.72
79174;BME280;68599;49.142;9.124;2024-03-06T08:40:20;100120.55;;;8.19;74.06
79174;BME280;68599;49.142;9.124;2024-03-06T08:42:47;100124.50;;;8.26;74.19
79174;BME280;68599;49.142;9.124;2024-03-06T08:45:14;100122.02;;;8.39;73.91
79174;BME280;68599;49.142;9.124;2024-03-06T08:47:41;100120.20;;;8.54;73.53
79174;BME280;68599;49.142;9.124;2024-03-06T08:50:09;100119.13;;;8.61;73.56
79174;BME280;68599;49.142;9.124;2024-03-06T08:52:36;100123.06;;;8.63;73.16
79174;BME280;68599;49.142;9.124;2024-03-06T08:55:03;100120.02;;;8.64;73.57
79174;BME280;68599;49.142;9.124;2024-03-06T08:57:30;100120.90;;;8.73;73.29
79174;BME280;68599;49.142;9.124;2024-03-06T08:59:58;100119.80;;;8.82;73.01
79174;BME280;68599;49.142;9.124;2024-03-06T09:02:25;100126.27;;;8.80;73.16
79174;BME280;68599;49.142;9.124;2024-03-06T09:04:52;100128.75;;;8.93;72.54
79174;BME280;68599;49.142;9.124;2024-03-06T09:07:19;100130.34;;;9.00;72.44
79174;BME280;68599;49.142;9.124;2024-03-06T09:09:50;100129.39;;;9.17;71.56
79174;BME280;68599;49.142;9.124;2024-03-06T09:12:18;100130.87;;;9.08;72.08
79174;BME280;68599;49.142;9.124;2024-03-06T09:14:45;100134.25;;;9.16;71.94
79174;BME280;68599;49.142;9.124;2024-03-06T09:17:12;100132.61;;;9.22;71.74
79174;BME280;68599;49.142;9.124;2024-03-06T09:19:41;100137.25;;;9.33;71.25
79174;BME280;68599;49.142;9.124;2024-03-06T09:22:28;100136.34;;;9.34;70.76
79174;BME280;68599;49.142;9.124;2024-03-06T09:24:54;100140.35;;;9.21;71.48
79174;BME280;68599;49.142;9.124;2024-03-06T09:27:22;100138.67;;;9.36;71.08
79174;BME280;68599;49.142;9.124;2024-03-06T09:29:49;100137.73;;;9.45;70.79
79174;BME280;68599;49.142;9.124;2024-03-06T09:32:16;100138.42;;;9.51;70.47
79174;BME280;68599;49.142;9.124;2024-03-06T09:34:45;100139.12;;;9.57;70.21
79174;BME280;68599;49.142;9.124;2024-03-06T09:37:12;100139.67;;;9.55;70.52
79174;BME280;68599;49.142;9.124;2024-03-06T09:39:38;100144.10;;;9.68;70.28
79174;BME280;68599;49.142;9.124;2024-03-06T09:42:05;100145.69;;;9.72;69.78
79174;BME280;68599;49.142;9.124;2024-03-06T09:44:32;100147.13;;;9.72;69.61
79174;BME280;68599;49.142;9.124;2024-03-06T09:47:03;100143.37;;;9.69;69.68
79174;BME280;68599;49.142;9.124;2024-03-06T09:49:30;100148.50;;;9.50;70.67
79174;BME280;68599;49.142;9.124;2024-03-06T09:51:58;100148.13;;;9.54;70.66
79174;BME280;68599;49.142;9.124;2024-03-06T09:54:26;100153.16;;;9.53;70.89
79174;BME280;68599;49.142;9.124;2024-03-06T09:56:53;100155.84;;;9.56;70.62
79174;BME280;68599;49.142;9.124;2024-03-06T09:59:22;100156.04;;;9.53;70.45
79174;BME280;68599;49.142;9.124;2024-03-06T10:04:28;100163.41;;;9.57;71.21
79174;BME280;68599;49.142;9.124;2024-03-06T10:06:59;100161.17;;;9.71;70.98
79174;BME280;68599;49.142;9.124;2024-03-06T10:09:26;100154.84;;;9.76;70.63
79174;BME280;68599;49.142;9.124;2024-03-06T10:11:53;100155.27;;;9.94;69.70
79174;BME280;68599;49.142;9.124;2024-03-06T10:14:23;100154.96;;;9.86;70.41
79174;BME280;68599;49.142;9.124;2024-03-06T10:16:57;100155.80;;;9.97;70.19
79174;BME280;68599;49.142;9.124;2024-03-06T10:19:26;100153.72;;;10.12;69.46
79174;BME280;68599;49.142;9.124;2024-03-06T10:21:56;100158.46;;;10.04;69.63
79174;BME280;68599;49.142;9.124;2024-03-06T10:24:28;100158.98;;;10.05;70.01
79174;BME280;68599;49.142;9.124;2024-03-06T10:26:56;100163.32;;;10.04;70.12
79174;BME280;68599;49.142;9.124;2024-03-06T10:29:27;100162.40;;;10.07;70.30
79174;BME280;68599;49.142;9.124;2024-03-06T10:31:55;100155.70;;;10.11;70.21
79174;BME280;68599;49.142;9.124;2024-03-06T10:34:29;100157.81;;;10.22;69.89
79174;BME280;68599;49.142;9.124;2024-03-06T10:37:00;100156.58;;;10.18;70.19
79174;BME280;68599;49.142;9.124;2024-03-06T10:39:30;100159.27;;;10.18;70.04
79174;BME280;68599;49.142;9.124;2024-03-06T10:41:57;100161.44;;;10.19;69.82
79174;BME280;68599;49.142;9.124;2024-03-06T10:44:26;100160.51;;;10.23;69.25
79174;BME280;68599;49.142;9.124;2024-03-06T10:46:58;100164.14;;;10.17;69.43
79174;BME280;68599;49.142;9.124;2024-03-06T10:49:27;100165.27;;;10.06;69.99
79174;BME280;68599;49.142;9.124;2024-03-06T10:52:00;100167.60;;;10.09;69.55
79174;BME280;68599;49.142;9.124;2024-03-06T10:54:28;100164.75;;;10.04;70.00
79174;BME280;68599;49.142;9.124;2024-03-06T10:56:56;100166.56;;;10.02;70.41
79174;BME280;68599;49.142;9.124;2024-03-06T10:59:27;100166.01;;;10.05;70.29
79174;BME280;68599;49.142;9.124;2024-03-06T11:01:55;100169.22;;;10.10;70.07
79174;BME280;68599;49.142;9.124;2024-03-06T11:04:27;100174.09;;;10.08;69.94
79174;BME280;68599;49.142;9.124;2024-03-06T11:06:57;100170.91;;;10.00;70.19
79174;BME280;68599;49.142;9.124;2024-03-06T11:09:26;100171.70;;;9.88;70.69
79174;BME280;68599;49.142;9.124;2024-03-06T11:11:54;100171.30;;;9.95;70.69
79174;BME280;68599;49.142;9.124;2024-03-06T11:14:23;100168.98;;;9.91;70.96
79174;BME280;68599;49.142;9.124;2024-03-06T11:17:01;100169.50;;;9.94;71.11
79174;BME280;68599;49.142;9.124;2024-03-06T11:28:20;100169.73;;;10.16;71.07
79174;BME280;68599;49.142;9.124;2024-03-06T11:31:06;100172.50;;;10.34;70.74
79174;BME280;68599;49.142;9.124;2024-03-06T11:33:42;100168.45;;;10.43;70.28
79174;BME280;68599;49.142;9.124;2024-03-06T11:36:23;100169.52;;;10.45;70.09
79174;BME280;68599;49.142;9.124;2024-03-06T11:38:59;100165.97;;;10.40;70.38
79174;BME280;68599;49.142;9.124;2024-03-06T11:41:31;100169.01;;;10.43;70.25
79174;BME280;68599;49.142;9.124;2024-03-06T11:44:01;100171.93;;;10.38;70.55
79174;BME280;68599;49.142;9.124;2024-03-06T11:49:20;100172.70;;;10.31;70.80
79174;BME280;68599;49.142;9.124;2024-03-06T11:51:48;100166.48;;;10.20;70.97
79174;BME280;68599;49.142;9.124;2024-03-06T11:54:15;100168.98;;;10.24;70.86
79174;BME280;68599;49.142;9.124;2024-03-06T11:56:45;100171.70;;;10.14;71.64
79174;BME280;68599;49.142;9.124;2024-03-06T11:59:13;100168.45;;;10.22;70.97
79174;BME280;68599;49.142;9.124;2024-03-06T12:01:41;100171.88;;;10.17;71.28
79174;BME280;68599;49.142;9.124;2024-03-06T12:04:08;100171.22;;;10.07;71.51
79174;BME280;68599;49.142;9.124;2024-03-06T12:06:35;100174.45;;;10.08;71.58
79174;BME280;68599;49.142;9.124;2024-03-06T12:09:02;100174.81;;;10.06;71.35
79174;BME280;68599;49.142;9.124;2024-03-06T12:11:29;100175.59;;;9.98;71.49
79174;BME280;68599;49.142;9.124;2024-03-06T12:13:57;100171.84;;;9.94;71.65
79174;BME280;68599;49.142;9.124;2024-03-06T12:16:24;100174.90;;;9.94;71.88
79174;BME280;68599;49.142;9.124;2024-03-06T12:18:57;100175.56;;;10.03;71.82
79174;BME280;68599;49.142;9.124;2024-03-06T12:21:31;100175.71;;;10.08;71.77
79174;BME280;68599;49.142;9.124;2024-03-06T12:24:03;100177.40;;;9.97;72.40
79174;BME280;68599;49.142;9.124;2024-03-06T12:26:30;100179.02;;;9.98;72.38
79174;BME280;68599;49.142;9.124;2024-03-06T12:29:07;100180.30;;;9.92;72.56
79174;BME280;68599;49.142;9.124;2024-03-06T12:31:36;100179.28;;;9.82;73.22
79174;BME280;68599;49.142;9.124;2024-03-06T12:34:04;100180.31;;;9.94;72.33
79174;BME280;68599;49.142;9.124;2024-03-06T12:36:31;100180.55;;;9.83;72.59
79174;BME280;68599;49.142;9.124;2024-03-06T12:39:00;100177.70;;;9.76;72.97
79174;BME280;68599;49.142;9.124;2024-03-06T12:41:28;100180.75;;;9.78;72.79
79174;BME280;68599;49.142;9.124;2024-03-06T12:43:56;100177.01;;;9.72;72.99
79174;BME280;68599;49.142;9.124;2024-03-06T12:46:23;100179.57;;;9.61;73.68
79174;BME280;68599;49.142;9.124;2024-03-06T12:48:50;100180.48;;;9.58;73.46
79174;BME280;68599;49.142;9.124;2024-03-06T12:51:17;100178.39;;;9.45;73.76
79174;BME280;68599;49.142;9.124;2024-03-06T12:53:43;100182.36;;;9.41;74.09
79174;BME280;68599;49.142;9.124;2024-03-06T12:56:10;100183.41;;;9.48;73.49
79174;BME280;68599;49.142;9.124;2024-03-06T12:58:37;100181.27;;;9.39;73.77
79174;BME280;68599;49.142;9.124;2024-03-06T13:01:03;100179.15;;;9.32;73.96
79174;BME280;68599;49.142;9.124;2024-03-06T13:03:32;100177.54;;;9.31;73.97
79174;BME280;68599;49.142;9.124;2024-03-06T13:05:59;100177.36;;;9.25;74.49
79174;BME280;68599;49.142;9.124;2024-03-06T13:08:25;100178.64;;;9.26;74.41
79174;BME280;68599;49.142;9.124;2024-03-06T13:10:52;100174.69;;;9.22;74.43
79174;BME280;68599;49.142;9.124;2024-03-06T13:13:18;100175.77;;;9.24;74.55
79174;BME280;68599;49.142;9.124;2024-03-06T13:15:45;100176.66;;;9.25;74.23
79174;BME280;68599;49.142;9.124;2024-03-06T13:18:14;100173.83;;;9.10;74.60
79174;BME280;68599;49.142;9.124;2024-03-06T13:20:42;100174.73;;;9.04;74.93
79174;BME280;68599;49.142;9.124;2024-03-06T13:23:11;100178.37;;;8.92;75.25
79174;BME280;68599;49.142;9.124;2024-03-06T13:25:37;100176.75;;;8.82;75.66
79174;BME280;68599;49.142;9.124;2024-03-06T13:28:04;100180.16;;;8.79;76.37